createdAt,value
2018-08-18T00:00:46.734Z,2.50
2018-08-18T00:03:16.832Z,2.53
2018-08-18T00:05:46.529Z,2.40
2018-08-18T00:08:17.080Z,2.33
2018-08-18T00:10:46.908Z,3.10
2018-08-18T00:13:23.086Z,2.63
2018-08-18T00:15:53.437Z,2.97
2018-08-18T00:18:24.267Z,3.80
2018-08-18T00:20:54.581Z,2.50
2018-08-18T00:23:25.774Z,2.67
2018-08-18T00:25:57.382Z,2.03
2018-08-18T00:28:28.299Z,2.40
2018-08-18T00:31:01.629Z,2.50
2018-08-18T00:33:33.029Z,2.10
2018-08-18T00:36:05.792Z,2.07
2018-08-18T00:38:36.173Z,2.10
2018-08-18T00:41:09.243Z,2.20
2018-08-18T00:43:40.068Z,2.60
2018-08-18T00:46:11.658Z,2.10
2018-08-18T00:48:43.490Z,2.50
2018-08-18T00:51:14.252Z,2.53
2018-08-18T00:53:47.688Z,2.50
2018-08-18T00:56:18.724Z,2.30
2018-08-18T00:58:53.511Z,2.30
2018-08-18T01:01:23.373Z,2.30
2018-08-18T01:03:56.489Z,2.37
2018-08-18T01:06:28.603Z,2.20
2018-08-18T01:08:59.651Z,2.40
2018-08-18T01:11:33.151Z,2.37
2018-08-18T01:14:14.424Z,2.40
2018-08-18T01:16:50.515Z,2.57
2018-08-18T01:19:23.070Z,2.73
2018-08-18T01:21:59.448Z,2.70
2018-08-18T01:24:29.357Z,2.80
2018-08-18T01:27:04.582Z,2.23
2018-08-18T01:29:35.579Z,3.40
2018-08-18T01:32:08.350Z,3.27
2018-08-18T01:34:38.448Z,3.43
2018-08-18T01:37:19.445Z,3.03
2018-08-18T01:39:51.832Z,3.00
2018-08-18T01:42:25.232Z,3.00
2018-08-18T01:44:58.568Z,3.43
2018-08-18T01:47:29.487Z,3.23
2018-08-18T01:50:05.967Z,3.47
2018-08-18T01:52:39.424Z,3.67
2018-08-18T01:55:10.566Z,3.00
2018-08-18T01:57:41.204Z,3.20
2018-08-18T02:00:27.185Z,3.20
2018-08-18T02:02:59.073Z,3.60
2018-08-18T02:05:30.190Z,3.10
2018-08-18T02:08:01.157Z,3.30
2018-08-18T02:10:31.741Z,3.07
2018-08-18T02:13:05.510Z,3.13
2018-08-18T02:15:35.478Z,2.70
2018-08-18T02:18:05.708Z,2.90
2018-08-18T02:20:36.156Z,3.40
2018-08-18T02:23:06.105Z,2.63
2018-08-18T02:25:36.861Z,2.50
2018-08-18T02:28:07.413Z,2.60
2018-08-18T02:30:37.638Z,3.03
2018-08-18T02:33:07.984Z,2.70
2018-08-18T02:35:37.688Z,2.77
2018-08-18T02:38:07.915Z,2.67
2018-08-18T02:40:38.076Z,2.50
2018-08-18T02:43:18.260Z,2.90
2018-08-18T02:45:48.646Z,3.03
2018-08-18T02:48:20.679Z,3.33
2018-08-18T02:50:52.152Z,2.80
2018-08-18T02:53:26.931Z,3.17
2018-08-18T02:55:57.329Z,3.50
2018-08-18T02:58:27.313Z,3.57
2018-08-18T03:00:56.809Z,3.10
2018-08-18T03:03:27.088Z,3.70
2018-08-18T03:06:02.018Z,3.83
2018-08-18T03:08:32.013Z,4.13
2018-08-18T03:11:02.771Z,4.23
2018-08-18T03:13:33.910Z,4.30
2018-08-18T03:16:04.635Z,4.00
2018-08-18T03:18:54.849Z,3.83
2018-08-18T03:21:35.178Z,4.07
2018-08-18T03:24:26.476Z,3.50
2018-08-18T03:26:59.121Z,4.20
2018-08-18T03:29:33.382Z,3.90
2018-08-18T03:32:04.240Z,3.90
2018-08-18T03:34:34.851Z,4.10
2018-08-18T03:37:10.313Z,3.80
2018-08-18T03:39:40.976Z,3.90
2018-08-18T03:42:10.811Z,3.97
2018-08-18T03:44:52.527Z,4.70
2018-08-18T03:47:23.084Z,3.87
2018-08-18T03:49:53.255Z,4.03
2018-08-18T03:52:23.212Z,4.50
2018-08-18T03:54:53.020Z,4.00
2018-08-18T03:57:22.913Z,4.20
2018-08-18T03:59:56.092Z,3.90
2018-08-18T04:02:25.716Z,3.90
2018-08-18T04:05:00.803Z,4.20
2018-08-18T04:07:30.552Z,4.70
2018-08-18T04:10:09.461Z,4.40
2018-08-18T04:12:43.255Z,3.83
2018-08-18T04:15:13.033Z,4.60
2018-08-18T04:17:43.046Z,4.80
2018-08-18T04:20:14.157Z,4.30
2018-08-18T04:23:10.139Z,4.10
2018-08-18T04:25:41.596Z,4.50
2018-08-18T04:28:11.567Z,4.50
2018-08-18T04:30:41.275Z,5.30
2018-08-18T04:33:10.963Z,4.40
2018-08-18T04:35:42.202Z,4.40
2018-08-18T04:38:13.334Z,4.93
2018-08-18T04:40:45.604Z,4.60
2018-08-18T04:43:16.045Z,4.73
2018-08-18T04:45:48.766Z,4.40
2018-08-18T04:48:32.235Z,4.37
2018-08-18T04:51:10.151Z,4.57
2018-08-18T04:53:39.769Z,4.70
2018-08-18T04:56:11.328Z,4.80
2018-08-18T04:58:43.099Z,5.07
2018-08-18T05:01:13.424Z,4.80
2018-08-18T05:15:16.005Z,5.40
2018-08-18T05:17:46.055Z,4.67
2018-08-18T05:20:21.391Z,5.33
2018-08-18T05:22:51.319Z,5.30
2018-08-18T05:25:32.545Z,4.90
2018-08-18T05:28:04.841Z,5.57
2018-08-18T05:30:36.196Z,5.10
2018-08-18T05:33:07.402Z,4.57
2018-08-18T05:35:37.768Z,4.73
2018-08-18T05:38:12.648Z,5.80
2018-08-18T05:40:45.270Z,4.77
2018-08-18T05:43:15.313Z,5.30
2018-08-18T05:45:46.467Z,5.20
2018-08-18T05:48:17.020Z,5.27
2018-08-18T05:50:47.349Z,5.10
2018-08-18T05:53:20.654Z,5.37
2018-08-18T05:55:51.425Z,5.10
2018-08-18T05:58:21.600Z,4.97
2018-08-18T06:01:26.134Z,4.50
2018-08-18T06:04:01.709Z,5.40
2018-08-18T06:06:32.187Z,5.20
2018-08-18T06:09:04.619Z,4.70
2018-08-18T06:11:34.914Z,5.07
2018-08-18T06:14:04.804Z,5.83
2018-08-18T06:16:39.181Z,4.77
2018-08-18T06:19:09.850Z,5.50
2018-08-18T06:21:42.114Z,4.97
2018-08-18T06:24:12.346Z,4.13
2018-08-18T06:26:42.010Z,4.80
2018-08-18T06:29:12.403Z,5.03
2018-08-18T06:31:57.557Z,5.50
2018-08-18T06:34:30.628Z,4.70
2018-08-18T06:37:01.901Z,4.97
2018-08-18T06:39:49.194Z,4.77
2018-08-18T06:42:35.799Z,4.83
2018-08-18T06:45:13.244Z,4.70
2018-08-18T06:47:46.830Z,4.40
2018-08-18T06:50:21.724Z,4.80
2018-08-18T06:52:56.077Z,5.37
2018-08-18T06:55:26.503Z,4.50
2018-08-18T06:58:06.271Z,4.37
2018-08-18T07:00:43.348Z,4.10
2018-08-18T07:03:23.832Z,4.50
2018-08-18T07:05:59.240Z,4.67
2018-08-18T07:08:30.092Z,4.60
2018-08-18T07:11:01.201Z,5.30
2018-08-18T07:13:32.115Z,4.73
2018-08-18T07:16:12.614Z,5.23
2018-08-18T07:18:44.964Z,4.93
2018-08-18T07:21:21.519Z,4.97
2018-08-18T07:23:54.040Z,5.47
2018-08-18T07:26:27.656Z,5.10
2018-08-18T07:29:02.423Z,4.20
2018-08-18T07:31:34.877Z,4.87
2018-08-18T07:34:07.917Z,5.87
2018-08-18T07:36:40.682Z,5.00
2018-08-18T07:39:10.494Z,5.30
2018-08-18T07:41:41.705Z,5.20
2018-08-18T07:44:28.374Z,5.30
2018-08-18T07:47:15.153Z,5.57
2018-08-18T07:49:48.417Z,4.67
2018-08-18T07:52:23.765Z,4.77
2018-08-18T07:54:57.363Z,5.10
2018-08-18T07:57:35.225Z,4.03
2018-08-18T08:00:21.435Z,5.20
2018-08-18T08:02:55.439Z,4.70
2018-08-18T08:05:27.199Z,4.37
2018-08-18T08:07:58.486Z,3.90
2018-08-18T08:10:29.063Z,4.27
2018-08-18T08:13:06.194Z,5.47
2018-08-18T08:15:38.440Z,4.67
2018-08-18T08:18:16.443Z,4.03
2018-08-18T08:20:51.845Z,4.57
2018-08-18T08:23:26.169Z,4.53
2018-08-18T08:25:58.891Z,4.83
2018-08-18T08:28:33.063Z,4.40
2018-08-18T08:31:04.919Z,4.70
2018-08-18T08:33:44.707Z,4.87
2018-08-18T08:36:20.212Z,4.17
2018-08-18T08:39:00.224Z,4.10
2018-08-18T08:41:33.796Z,4.33
2018-08-18T08:44:05.493Z,4.33
2018-08-18T08:46:44.722Z,4.57
2018-08-18T08:49:15.566Z,4.80
2018-08-18T08:51:46.598Z,4.27
2018-08-18T08:54:20.802Z,3.77
2018-08-18T08:56:54.035Z,4.07
2018-08-18T08:59:26.136Z,3.57
2018-08-18T09:02:00.174Z,4.63
2018-08-18T09:04:36.835Z,4.00
2018-08-18T09:07:12.639Z,4.30
2018-08-18T09:09:48.370Z,4.20
2018-08-18T09:12:20.369Z,3.47
2018-08-18T09:14:58.521Z,4.63
2018-08-18T09:17:34.027Z,3.40
2018-08-18T09:20:07.761Z,4.97
2018-08-18T09:22:59.810Z,3.90
2018-08-18T09:25:33.415Z,3.97
2018-08-18T09:28:04.822Z,4.00
2018-08-18T09:30:39.890Z,4.03
2018-08-18T09:33:11.091Z,3.97
2018-08-18T09:35:56.535Z,4.37
2018-08-18T09:38:27.711Z,4.03
2018-08-18T09:40:57.229Z,4.10
2018-08-18T09:43:26.856Z,4.00
2018-08-18T09:45:58.467Z,4.80
2018-08-18T09:48:30.734Z,3.83
2018-08-18T09:51:02.248Z,4.30
2018-08-18T09:53:36.245Z,4.10
2018-08-18T09:56:05.878Z,5.00
2018-08-18T09:58:39.833Z,4.83
2018-08-18T10:01:10.487Z,4.60
2018-08-18T10:03:42.586Z,4.07
2018-08-18T10:06:14.328Z,4.73
2018-08-18T10:08:44.983Z,4.37
2018-08-18T10:11:18.977Z,4.00
2018-08-18T10:13:49.000Z,4.63
2018-08-18T10:16:18.828Z,4.67
2018-08-18T10:18:52.226Z,5.20
2018-08-18T10:21:22.990Z,5.20
2018-08-18T10:23:56.676Z,4.40
2018-08-18T10:26:27.042Z,5.00
2018-08-18T10:29:14.458Z,4.50
2018-08-18T10:31:51.575Z,4.67
2018-08-18T10:34:22.681Z,5.27
2018-08-18T10:36:58.982Z,5.53
2018-08-18T10:39:29.444Z,6.07
2018-08-18T10:42:11.903Z,4.87
2018-08-18T10:44:50.378Z,5.70
2018-08-18T10:47:26.661Z,5.13
2018-08-18T10:50:09.331Z,5.57
2018-08-18T10:52:50.702Z,4.67
2018-08-18T10:55:20.409Z,6.23
2018-08-18T10:58:04.859Z,5.77
2018-08-18T11:00:35.839Z,6.40
2018-08-18T11:03:09.496Z,5.63
2018-08-18T11:05:40.673Z,6.30
2018-08-18T11:08:15.514Z,6.13
2018-08-18T11:10:45.114Z,5.70
2018-08-18T11:13:17.159Z,5.63
2018-08-18T11:15:52.984Z,5.33
2018-08-18T11:18:24.403Z,5.57
2018-08-18T11:20:56.400Z,6.30
2018-08-18T11:23:28.031Z,4.93
2018-08-18T11:26:00.002Z,5.33
2018-08-18T11:28:29.849Z,5.23
2018-08-18T11:31:01.010Z,4.93
2018-08-18T11:33:40.952Z,6.03
2018-08-18T11:36:11.196Z,4.93
2018-08-18T11:38:41.971Z,5.10
2018-08-18T11:41:12.080Z,5.73
2018-08-18T11:43:47.703Z,5.83
2018-08-18T11:46:18.382Z,5.37
2018-08-18T11:48:48.890Z,5.13
2018-08-18T11:51:19.879Z,4.60
2018-08-18T11:53:59.894Z,4.80
2018-08-18T11:56:33.313Z,4.77
2018-08-18T11:59:12.276Z,5.80
2018-08-18T12:01:43.221Z,5.07
2018-08-18T12:04:13.416Z,5.43
2018-08-18T12:06:50.774Z,5.17
2018-08-18T12:09:25.219Z,4.90
2018-08-18T12:11:56.063Z,4.30
2018-08-18T12:14:26.086Z,5.80
2018-08-18T12:16:56.868Z,5.20
2018-08-18T12:19:27.281Z,5.77
2018-08-18T12:21:58.856Z,6.40
2018-08-18T12:24:29.385Z,4.90
2018-08-18T12:27:14.591Z,5.90
2018-08-18T12:29:46.827Z,4.90
2018-08-18T12:32:26.220Z,4.60
2018-08-18T12:35:02.608Z,4.80
2018-08-18T12:37:36.631Z,5.77
2018-08-18T12:40:06.768Z,6.67
2018-08-18T12:42:40.931Z,6.10
2018-08-18T12:45:13.459Z,5.83
2018-08-18T12:47:54.669Z,5.80
2018-08-18T12:50:31.131Z,5.50
2018-08-18T12:53:02.587Z,5.77
2018-08-18T12:55:34.394Z,5.20
2018-08-18T12:58:07.830Z,6.30
2018-08-18T13:00:38.638Z,6.00
2018-08-18T13:03:09.420Z,6.10
2018-08-18T13:05:39.267Z,5.90
2018-08-18T13:08:13.208Z,5.27
2018-08-18T13:10:45.456Z,6.40
2018-08-18T13:13:18.422Z,4.97
2018-08-18T13:15:49.966Z,5.63
2018-08-18T13:18:21.549Z,5.23
2018-08-18T13:21:02.344Z,4.57
2018-08-18T13:23:32.088Z,4.67
2018-08-18T13:26:02.658Z,4.90
2018-08-18T13:28:32.608Z,5.57
2018-08-18T13:31:03.094Z,5.00
2018-08-18T13:33:39.064Z,6.00
2018-08-18T13:36:10.854Z,5.37
2018-08-18T13:38:40.349Z,5.90
2018-08-18T13:41:11.225Z,5.70
2018-08-18T13:43:47.622Z,5.70
2018-08-18T13:46:18.697Z,4.57
2018-08-18T13:48:55.522Z,4.90
2018-08-18T13:51:25.455Z,5.87
2018-08-18T13:54:00.047Z,5.20
2018-08-18T13:56:35.457Z,5.70
2018-08-18T13:59:10.801Z,5.30
2018-08-18T14:01:43.972Z,5.13
2018-08-18T14:04:26.341Z,5.50
2018-08-18T14:07:01.701Z,5.43
2018-08-18T14:09:38.454Z,6.17
2018-08-18T14:12:18.389Z,6.20
2018-08-18T14:14:53.843Z,5.90
2018-08-18T14:17:27.865Z,5.80
2018-08-18T14:19:59.574Z,5.17
2018-08-18T14:22:32.874Z,5.00
2018-08-18T14:25:03.706Z,5.57
2018-08-18T14:27:37.498Z,5.43
2018-08-18T14:30:27.516Z,7.40
2018-08-18T14:33:00.349Z,4.90
2018-08-18T14:35:30.555Z,6.20
2018-08-18T14:38:02.641Z,5.20
2018-08-18T14:40:51.685Z,5.73
2018-08-18T14:43:28.959Z,5.73
2018-08-18T14:46:02.420Z,6.00
2018-08-18T14:48:34.265Z,6.83
2018-08-18T14:53:45.584Z,5.37
2018-08-18T14:56:18.019Z,5.70
2018-08-18T15:03:07.454Z,5.27
2018-08-18T15:05:39.043Z,6.20
2018-08-18T15:08:09.831Z,5.90
2018-08-18T15:10:43.588Z,6.17
2018-08-18T15:13:13.953Z,6.10
2018-08-18T15:15:44.903Z,5.97
2018-08-18T15:18:19.220Z,6.07
2018-08-18T15:20:49.665Z,5.17
2018-08-18T15:23:25.154Z,5.27
2018-08-18T15:25:57.883Z,6.53
2018-08-18T15:28:29.944Z,6.30
2018-08-18T15:31:00.869Z,6.50
2018-08-18T15:33:30.842Z,5.83
2018-08-18T15:36:01.330Z,5.50
2018-08-18T15:38:43.371Z,5.70
2018-08-18T15:41:14.928Z,5.67
2018-08-18T15:43:46.499Z,6.37
2018-08-18T15:46:17.638Z,6.30
2018-08-18T15:48:47.646Z,6.40
2018-08-18T15:51:20.987Z,6.17
2018-08-18T15:53:56.989Z,6.87
2018-08-18T15:56:27.481Z,5.50
2018-08-18T15:58:59.701Z,5.90
2018-08-18T16:01:33.428Z,5.27
2018-08-18T16:04:04.391Z,5.13
2018-08-18T16:06:34.424Z,5.90
2018-08-18T16:09:09.403Z,5.33
2018-08-18T16:11:40.896Z,5.77
2018-08-18T16:14:11.155Z,5.70
2018-08-18T16:16:57.068Z,5.70
2018-08-18T16:19:28.112Z,5.43
2018-08-18T16:21:59.947Z,5.33
2018-08-18T16:24:35.285Z,5.97
2018-08-18T16:27:07.543Z,5.60
2018-08-18T16:29:38.639Z,5.90
2018-08-18T16:32:17.385Z,5.43
2018-08-18T16:34:48.607Z,6.47
2018-08-18T16:37:19.126Z,6.20
2018-08-18T16:39:50.302Z,6.43
2018-08-18T16:42:21.439Z,6.70
2018-08-18T16:44:53.636Z,5.50
2018-08-18T16:47:23.335Z,5.30
2018-08-18T16:49:55.115Z,6.40
2018-08-18T16:52:25.068Z,6.80
2018-08-18T16:54:54.790Z,8.30
2018-08-18T16:57:25.892Z,7.17
2018-08-18T16:59:56.431Z,6.10
2018-08-18T17:02:35.476Z,6.77
2018-08-18T17:05:07.300Z,6.73
2018-08-18T17:07:37.770Z,7.03
2018-08-18T17:10:08.332Z,6.77
2018-08-18T17:12:40.721Z,5.93
2018-08-18T17:15:11.921Z,6.53
2018-08-18T17:17:44.127Z,6.23
2018-08-18T17:20:15.134Z,6.40
2018-08-18T17:22:46.487Z,6.60
2018-08-18T17:25:16.384Z,6.40
2018-08-18T17:27:55.122Z,6.37
2018-08-18T17:30:39.569Z,7.13
2018-08-18T17:33:15.697Z,6.93
2018-08-18T17:35:59.731Z,6.73
2018-08-18T17:38:30.527Z,6.23
2018-08-18T17:41:00.692Z,6.73
2018-08-18T17:43:30.668Z,6.73
2018-08-18T17:46:05.073Z,6.70
2018-08-18T17:48:42.835Z,7.27
2018-08-18T17:51:14.240Z,7.30
2018-08-18T17:53:54.868Z,7.03
2018-08-18T17:56:26.445Z,7.53
2018-08-18T17:59:02.724Z,6.70
2018-08-18T18:01:44.977Z,7.23
2018-08-18T18:04:15.117Z,7.20
2018-08-18T18:06:44.674Z,6.90
2018-08-18T18:09:14.678Z,7.93
2018-08-18T18:11:46.816Z,7.30
2018-08-18T18:14:19.011Z,7.63
2018-08-18T18:16:49.962Z,6.27
2018-08-18T18:19:21.697Z,7.10
2018-08-18T18:21:52.514Z,6.97
2018-08-18T18:24:33.986Z,7.27
2018-08-18T18:27:04.576Z,6.23
2018-08-18T18:29:36.137Z,6.63
2018-08-18T18:32:06.243Z,6.83
2018-08-18T18:34:36.549Z,6.60
2018-08-18T18:37:09.106Z,7.20
2018-08-18T18:39:51.983Z,6.37
2018-08-18T18:42:22.875Z,7.03
2018-08-18T18:44:53.771Z,7.23
2018-08-18T18:47:25.428Z,6.50
2018-08-18T18:49:57.710Z,7.00
2018-08-18T18:52:28.478Z,6.63
2018-08-18T18:54:59.751Z,7.00
2018-08-18T18:57:29.901Z,6.50
2018-08-18T19:00:01.921Z,7.20
2018-08-18T19:02:37.862Z,6.40
2018-08-18T19:05:21.318Z,7.50
2018-08-18T19:07:57.067Z,7.93
2018-08-18T19:10:27.705Z,7.10
2018-08-18T19:12:58.866Z,7.20
2018-08-18T19:15:30.671Z,7.47
2018-08-18T19:18:01.464Z,6.70
2018-08-18T19:20:32.491Z,7.10
2018-08-18T19:23:09.194Z,7.63
2018-08-18T19:25:40.527Z,7.60
2018-08-18T19:28:15.820Z,7.20
2018-08-18T19:30:45.742Z,7.40
2018-08-18T19:33:16.998Z,8.00
2018-08-18T19:35:50.688Z,7.23
2018-08-18T19:38:23.137Z,7.30
2018-08-18T19:40:55.297Z,7.30
2018-08-18T19:43:28.313Z,7.97
2018-08-18T19:46:04.421Z,7.77
2018-08-18T19:48:42.459Z,7.50
2018-08-18T19:51:13.820Z,7.40
2018-08-18T19:53:46.185Z,6.83
2018-08-18T19:56:15.917Z,6.80
2018-08-18T19:58:46.409Z,7.00
2018-08-18T20:01:19.722Z,6.40
2018-08-18T20:03:52.397Z,7.43
2018-08-18T20:06:24.830Z,6.83
2018-08-18T20:08:58.687Z,7.10
2018-08-18T20:11:31.311Z,8.47
2018-08-18T20:14:04.146Z,7.60
2018-08-18T20:16:35.546Z,7.93
2018-08-18T20:19:10.928Z,7.00
2018-08-18T20:21:41.064Z,6.77
2018-08-18T20:24:14.713Z,8.10
2018-08-18T20:26:45.766Z,7.90
2018-08-18T20:29:16.542Z,9.03
2018-08-18T20:32:01.807Z,9.60
2018-08-18T20:34:33.836Z,8.40
2018-08-18T20:37:04.865Z,9.20
2018-08-18T20:39:35.388Z,8.90
2018-08-18T20:42:06.231Z,8.63
2018-08-18T20:44:38.691Z,9.53
2018-08-18T20:47:09.141Z,9.23
2018-08-18T20:49:39.370Z,9.53
2018-08-18T20:52:11.135Z,10.17
2018-08-18T20:54:41.004Z,8.90
2018-08-18T20:57:11.578Z,9.17
2018-08-18T20:59:41.519Z,8.80
2018-08-18T21:02:12.339Z,9.27
2018-08-18T21:04:45.318Z,8.93
2018-08-18T21:07:14.885Z,8.00
2018-08-18T21:09:44.870Z,8.60
2018-08-18T21:12:15.313Z,8.97
2018-08-18T21:14:45.710Z,8.90
2018-08-18T21:17:20.665Z,8.80
2018-08-18T21:19:51.566Z,9.37
2018-08-18T21:22:22.225Z,8.60
2018-08-18T21:24:52.845Z,9.00
2018-08-18T21:27:23.414Z,8.43
2018-08-18T21:29:54.972Z,7.70
2018-08-18T21:32:25.651Z,9.37
2018-08-18T21:34:55.835Z,8.20
2018-08-18T21:37:25.747Z,8.20
2018-08-18T21:39:55.797Z,8.60
2018-08-18T21:42:25.351Z,8.43
2018-08-18T21:44:55.588Z,9.23
2018-08-18T21:47:25.759Z,8.67
2018-08-18T21:49:56.846Z,9.37
2018-08-18T21:52:27.568Z,8.40
2018-08-18T21:54:57.303Z,8.47
2018-08-18T21:57:28.414Z,9.13
2018-08-18T22:00:00.045Z,8.03
2018-08-18T22:02:43.056Z,7.77
2018-08-18T22:05:15.943Z,7.70
2018-08-18T22:07:51.285Z,8.10
2018-08-18T22:10:21.067Z,8.40
2018-08-18T22:12:51.583Z,8.27
2018-08-18T22:15:24.055Z,8.23
2018-08-18T22:17:58.089Z,8.43
2018-08-18T22:20:28.180Z,8.30
2018-08-18T22:22:57.836Z,8.30
2018-08-18T22:25:27.994Z,8.60
2018-08-18T22:27:57.998Z,8.07
2018-08-18T22:30:28.335Z,7.50
2018-08-18T22:32:59.143Z,7.83
2018-08-18T22:35:29.569Z,8.00
2018-08-18T22:37:59.467Z,7.90
2018-08-18T22:40:31.999Z,8.70
2018-08-18T22:43:03.148Z,8.03
2018-08-18T22:45:33.884Z,9.60
2018-08-18T22:48:04.385Z,9.60
2018-08-18T22:50:34.022Z,9.13
2018-08-18T22:53:04.816Z,9.07
2018-08-18T22:55:35.785Z,9.97
2018-08-18T22:58:05.979Z,9.77
2018-08-18T23:00:40.770Z,10.30
2018-08-18T23:03:10.997Z,9.93
2018-08-18T23:05:42.071Z,9.60
2018-08-18T23:08:13.985Z,9.07
2018-08-18T23:10:48.957Z,9.97
2018-08-18T23:13:25.097Z,10.20
2018-08-18T23:16:07.432Z,6.83
2018-08-18T23:18:53.596Z,6.80
2018-08-18T23:21:30.992Z,6.80
2018-08-18T23:24:25.518Z,5.87
2018-08-18T23:26:56.252Z,5.30
2018-08-18T23:29:27.031Z,5.50
2018-08-18T23:32:00.372Z,5.43
2018-08-18T23:34:33.796Z,6.40
2018-08-18T23:37:14.762Z,5.43
2018-08-18T23:39:49.107Z,5.57
2018-08-18T23:42:23.882Z,5.70
2018-08-18T23:44:57.170Z,7.43
2018-08-18T23:47:27.180Z,9.63
2018-08-18T23:49:57.286Z,9.10
2018-08-18T23:52:27.772Z,9.70
2018-08-18T23:54:58.682Z,12.07
2018-08-18T23:57:29.462Z,11.30
